createdAt,value
2019-01-29T00:01:08.341Z,1.22
2019-01-29T00:04:07.158Z,1.25
2019-01-29T00:06:53.781Z,1.28
2019-01-29T00:09:35.890Z,1.24
2019-01-29T00:12:18.925Z,1.17
2019-01-29T00:15:01.517Z,1.18
2019-01-29T00:17:51.659Z,1.16
2019-01-29T00:20:30.895Z,1.15
2019-01-29T00:23:10.684Z,1.25
2019-01-29T00:25:47.844Z,1.20
2019-01-29T00:28:25.956Z,1.24
2019-01-29T00:31:01.910Z,1.20
2019-01-29T00:33:42.768Z,1.17
2019-01-29T00:36:20.075Z,1.18
2019-01-29T00:38:53.692Z,1.25
2019-01-29T00:41:54.231Z,1.26
2019-01-29T00:44:28.773Z,1.30
2019-01-29T00:47:15.946Z,1.23
2019-01-29T00:49:55.842Z,1.22
2019-01-29T00:52:42.052Z,1.29
2019-01-29T00:55:17.738Z,1.34
2019-01-29T00:57:55.620Z,1.21
2019-01-29T01:00:28.937Z,1.16
2019-01-29T01:03:07.294Z,1.24
2019-01-29T01:05:53.176Z,1.19
2019-01-29T01:08:31.857Z,1.22
2019-01-29T01:11:19.295Z,1.25
2019-01-29T01:13:58.185Z,1.26
2019-01-29T01:16:33.680Z,1.26
2019-01-29T01:19:10.496Z,1.29
2019-01-29T01:21:43.905Z,1.29
2019-01-29T01:24:18.467Z,1.28
2019-01-29T01:26:54.232Z,1.26
2019-01-29T01:29:27.867Z,1.27
2019-01-29T01:32:00.757Z,1.21
2019-01-29T01:34:34.415Z,1.13
2019-01-29T01:37:13.330Z,1.17
2019-01-29T01:39:47.033Z,1.12
2019-01-29T01:42:22.473Z,1.24
2019-01-29T01:44:56.092Z,1.18
2019-01-29T01:47:29.527Z,1.22
2019-01-29T01:50:03.518Z,1.17
2019-01-29T01:52:36.882Z,1.07
2019-01-29T01:55:12.202Z,1.00
2019-01-29T01:57:48.812Z,1.01
2019-01-29T02:00:23.170Z,0.93
2019-01-29T02:03:09.015Z,0.89
2019-01-29T02:05:44.490Z,0.83
2019-01-29T02:08:17.944Z,0.74
2019-01-29T02:10:56.641Z,0.63
2019-01-29T02:13:34.591Z,0.58
2019-01-29T02:16:12.989Z,0.55
2019-01-29T02:18:57.922Z,0.56
2019-01-29T02:21:39.690Z,0.56
2019-01-29T02:24:16.148Z,0.57
2019-01-29T02:26:55.677Z,0.65
2019-01-29T02:29:33.788Z,0.62
2019-01-29T02:32:12.030Z,0.67
2019-01-29T02:35:02.259Z,0.63
2019-01-29T02:37:42.823Z,0.66
2019-01-29T02:40:21.438Z,0.64
2019-01-29T02:43:22.787Z,0.68
2019-01-29T02:45:59.662Z,0.71
2019-01-29T02:48:32.961Z,0.76
2019-01-29T02:51:06.609Z,0.77
2019-01-29T02:54:21.829Z,0.83
2019-01-29T02:57:21.040Z,0.85
2019-01-29T03:00:02.442Z,0.83
2019-01-29T03:02:42.416Z,0.83
2019-01-29T03:05:25.117Z,0.84
2019-01-29T03:08:01.766Z,0.88
2019-01-29T03:10:59.327Z,0.87
2019-01-29T03:13:37.162Z,0.90
2019-01-29T03:16:15.425Z,0.83
2019-01-29T03:18:54.111Z,0.89
2019-01-29T03:21:38.870Z,0.87
2019-01-29T03:24:15.453Z,0.89
2019-01-29T03:26:52.009Z,0.88
2019-01-29T03:29:31.406Z,0.92
2019-01-29T03:32:09.498Z,0.87
2019-01-29T03:34:47.348Z,0.87
2019-01-29T03:37:36.268Z,0.88
2019-01-29T03:40:13.061Z,0.95
2019-01-29T03:42:49.678Z,0.98
2019-01-29T03:45:26.541Z,0.91
2019-01-29T03:48:05.263Z,0.86
2019-01-29T03:50:46.006Z,0.84
2019-01-29T03:53:21.577Z,0.82
2019-01-29T03:55:56.196Z,0.74
2019-01-29T03:58:37.188Z,0.71
2019-01-29T04:01:42.039Z,0.72
2019-01-29T04:04:21.184Z,0.67
2019-01-29T04:06:58.967Z,0.65
2019-01-29T04:09:34.730Z,0.62
2019-01-29T04:12:09.777Z,0.62
2019-01-29T04:14:46.372Z,0.59
2019-01-29T04:17:26.567Z,0.61
2019-01-29T04:20:08.685Z,0.60
2019-01-29T04:22:45.778Z,0.57
2019-01-29T04:25:21.306Z,0.56
2019-01-29T04:27:58.963Z,0.54
2019-01-29T04:30:37.355Z,0.51
2019-01-29T04:33:19.361Z,0.45
2019-01-29T04:36:02.479Z,0.43
2019-01-29T04:38:44.920Z,0.31
2019-01-29T04:41:46.713Z,0.31
2019-01-29T04:44:27.104Z,0.26
2019-01-29T04:47:05.543Z,0.28
2019-01-29T04:50:08.596Z,0.25
2019-01-29T04:53:02.601Z,0.26
2019-01-29T04:55:37.859Z,0.24
2019-01-29T04:58:12.154Z,0.31
2019-01-29T05:00:46.544Z,0.33
2019-01-29T05:03:22.255Z,0.39
2019-01-29T05:05:55.564Z,0.46
2019-01-29T05:08:28.869Z,0.46
2019-01-29T05:11:03.155Z,0.57
2019-01-29T05:13:36.519Z,0.53
2019-01-29T05:16:09.877Z,0.52
2019-01-29T05:18:44.102Z,0.55
2019-01-29T05:21:17.653Z,0.53
2019-01-29T05:23:50.981Z,0.53
2019-01-29T05:26:23.966Z,0.57
2019-01-29T05:28:56.682Z,0.56
2019-01-29T05:31:29.719Z,0.63
2019-01-29T05:34:03.418Z,0.58
2019-01-29T05:36:36.569Z,0.62
2019-01-29T05:39:11.402Z,0.58
2019-01-29T05:41:44.590Z,0.56
2019-01-29T05:44:17.579Z,0.60
2019-01-29T05:46:50.538Z,0.55
2019-01-29T05:49:23.956Z,0.54
2019-01-29T05:51:57.122Z,0.50
2019-01-29T05:54:31.783Z,0.46
2019-01-29T05:57:06.082Z,0.56
2019-01-29T05:59:39.588Z,0.51
2019-01-29T06:02:15.342Z,0.46
2019-01-29T06:04:48.641Z,0.40
2019-01-29T06:07:22.079Z,0.37
2019-01-29T06:09:58.704Z,0.40
2019-01-29T06:12:31.900Z,0.42
2019-01-29T06:15:06.405Z,0.31
2019-01-29T06:17:42.256Z,0.33
2019-01-29T06:20:18.639Z,0.37
2019-01-29T06:22:51.779Z,0.22
2019-01-29T06:25:25.221Z,0.28
2019-01-29T06:27:59.557Z,0.25
2019-01-29T06:30:40.302Z,0.20
2019-01-29T06:33:12.901Z,0.27
2019-01-29T06:35:46.304Z,0.28
2019-01-29T06:38:20.091Z,0.31
2019-01-29T06:40:53.502Z,0.35
2019-01-29T06:43:27.391Z,0.46
2019-01-29T06:46:01.404Z,0.37
2019-01-29T06:48:34.894Z,0.30
2019-01-29T06:51:08.304Z,0.32
2019-01-29T06:53:41.449Z,0.43
2019-01-29T06:56:15.141Z,0.42
2019-01-29T06:58:51.751Z,0.43
2019-01-29T07:01:27.545Z,0.42
2019-01-29T07:04:01.118Z,0.40
2019-01-29T07:06:34.939Z,0.46
2019-01-29T07:09:08.534Z,0.45
2019-01-29T07:11:41.513Z,0.40
2019-01-29T07:14:14.118Z,0.46
2019-01-29T07:17:01.929Z,0.37
2019-01-29T07:19:43.556Z,0.43
2019-01-29T07:22:17.004Z,0.44
2019-01-29T07:24:50.539Z,0.44
2019-01-29T07:27:24.334Z,0.42
2019-01-29T07:29:57.625Z,0.49
2019-01-29T07:32:31.028Z,0.45
2019-01-29T07:35:06.878Z,0.49
2019-01-29T07:37:39.983Z,0.53
2019-01-29T07:40:12.811Z,0.55
2019-01-29T07:42:45.437Z,0.45
2019-01-29T07:45:18.754Z,0.47
2019-01-29T07:47:52.110Z,0.52
2019-01-29T07:50:25.532Z,0.57
2019-01-29T07:52:59.111Z,0.50
2019-01-29T07:55:33.011Z,0.56
2019-01-29T07:58:06.017Z,0.40
2019-01-29T08:00:38.701Z,0.49
2019-01-29T08:03:12.112Z,0.54
2019-01-29T08:05:45.449Z,0.55
2019-01-29T08:08:19.908Z,0.52
2019-01-29T08:10:52.918Z,0.53
2019-01-29T08:13:26.297Z,0.49
2019-01-29T08:15:58.962Z,0.56
2019-01-29T08:18:32.790Z,0.60
2019-01-29T08:21:05.564Z,0.57
2019-01-29T08:23:39.063Z,0.51
2019-01-29T08:26:12.048Z,0.49
2019-01-29T08:28:45.279Z,0.53
2019-01-29T08:31:18.644Z,0.38
2019-01-29T08:33:52.038Z,0.39
2019-01-29T08:36:24.795Z,0.38
2019-01-29T08:38:58.321Z,0.39
2019-01-29T08:41:32.220Z,0.40
2019-01-29T08:44:05.732Z,0.35
2019-01-29T08:46:38.782Z,0.42
2019-01-29T08:49:13.836Z,0.44
2019-01-29T08:51:46.860Z,0.46
2019-01-29T08:54:19.536Z,0.42
2019-01-29T08:56:53.353Z,0.40
2019-01-29T08:59:26.503Z,0.26
2019-01-29T09:02:00.707Z,0.28
2019-01-29T09:04:34.249Z,0.51
2019-01-29T09:07:06.914Z,0.45
2019-01-29T09:09:39.689Z,0.43
2019-01-29T09:12:12.202Z,0.49
2019-01-29T09:14:44.783Z,0.65
2019-01-29T09:17:20.338Z,0.56
2019-01-29T09:19:53.283Z,0.53
2019-01-29T09:22:25.958Z,0.51
2019-01-29T09:24:59.359Z,0.44
2019-01-29T09:27:32.643Z,0.46
2019-01-29T09:30:06.653Z,0.55
2019-01-29T09:32:40.410Z,0.56
2019-01-29T09:35:14.501Z,0.59
2019-01-29T09:37:46.685Z,0.77
2019-01-29T09:40:21.704Z,0.72
2019-01-29T09:42:55.264Z,0.70
2019-01-29T09:45:28.691Z,0.86
2019-01-29T09:48:01.968Z,0.68
2019-01-29T09:50:35.105Z,0.59
2019-01-29T09:53:08.163Z,0.54
2019-01-29T09:55:42.042Z,0.57
2019-01-29T09:58:15.372Z,0.72
2019-01-29T10:00:49.511Z,0.67
2019-01-29T10:03:22.889Z,0.73
2019-01-29T10:06:03.412Z,0.70
2019-01-29T10:08:38.373Z,0.78
2019-01-29T10:11:11.872Z,0.91
2019-01-29T10:13:45.683Z,1.12
2019-01-29T10:16:18.278Z,1.17
2019-01-29T10:18:53.271Z,1.02
2019-01-29T10:21:26.354Z,1.00
2019-01-29T10:23:59.400Z,0.95
2019-01-29T10:26:32.771Z,0.79
2019-01-29T10:29:06.159Z,0.84
2019-01-29T10:31:39.666Z,0.88
2019-01-29T10:34:13.504Z,1.08
2019-01-29T10:36:46.521Z,0.92
2019-01-29T10:39:20.687Z,0.86
2019-01-29T10:41:58.536Z,0.98
2019-01-29T10:44:33.748Z,1.00
2019-01-29T10:47:08.376Z,0.95
2019-01-29T10:49:44.636Z,0.99
2019-01-29T10:52:18.007Z,1.14
2019-01-29T10:54:53.971Z,1.10
2019-01-29T10:57:30.844Z,1.23
2019-01-29T11:00:09.120Z,1.28
2019-01-29T11:02:44.422Z,1.38
2019-01-29T11:05:20.574Z,1.40
2019-01-29T11:07:56.934Z,1.37
2019-01-29T11:10:30.811Z,1.48
2019-01-29T11:13:04.552Z,1.58
2019-01-29T11:15:39.283Z,1.79
2019-01-29T11:18:16.123Z,1.62
2019-01-29T11:20:49.525Z,1.89
2019-01-29T11:23:22.511Z,1.85
2019-01-29T11:25:56.274Z,1.94
2019-01-29T11:28:29.997Z,2.12
2019-01-29T11:31:06.641Z,1.98
2019-01-29T11:33:39.384Z,2.27
2019-01-29T11:36:12.390Z,2.13
2019-01-29T11:38:49.474Z,1.94
2019-01-29T11:41:24.285Z,2.18
2019-01-29T11:44:02.643Z,2.15
2019-01-29T11:46:41.921Z,2.12
2019-01-29T11:49:23.455Z,1.96
2019-01-29T11:52:00.012Z,2.01
2019-01-29T11:54:39.607Z,2.15
2019-01-29T11:57:20.391Z,2.38
2019-01-29T11:59:58.005Z,2.60
2019-01-29T12:02:39.349Z,2.35
2019-01-29T12:05:20.152Z,2.43
2019-01-29T12:07:57.558Z,2.50
2019-01-29T12:10:34.576Z,2.27
2019-01-29T12:13:12.084Z,2.31
2019-01-29T12:15:48.458Z,2.48
2019-01-29T12:18:23.865Z,2.55
2019-01-29T12:20:57.039Z,2.81
2019-01-29T12:23:36.509Z,3.37
2019-01-29T12:26:16.964Z,4.03
2019-01-29T12:29:07.145Z,3.57
2019-01-29T12:32:07.127Z,2.88
2019-01-29T12:34:48.033Z,2.56
2019-01-29T12:37:27.451Z,2.40
2019-01-29T12:40:05.659Z,2.30
2019-01-29T12:42:40.173Z,2.47
2019-01-29T12:45:14.802Z,2.54
2019-01-29T12:47:48.565Z,2.42
2019-01-29T12:50:25.952Z,2.55
2019-01-29T12:53:08.420Z,2.68
2019-01-29T12:55:48.843Z,2.62
2019-01-29T12:58:25.101Z,2.50
2019-01-29T13:01:02.091Z,2.39
2019-01-29T13:03:37.435Z,2.39
2019-01-29T13:06:26.089Z,2.78
2019-01-29T13:09:11.329Z,2.74
2019-01-29T13:11:52.444Z,2.75
2019-01-29T13:14:35.197Z,2.87
2019-01-29T13:17:13.790Z,2.83
2019-01-29T13:19:54.404Z,2.77
2019-01-29T13:22:44.132Z,2.65
2019-01-29T13:25:17.166Z,2.84
2019-01-29T13:28:07.776Z,3.05
2019-01-29T13:30:44.556Z,3.57
2019-01-29T13:33:19.096Z,4.28
2019-01-29T13:35:54.138Z,4.48
2019-01-29T13:38:27.292Z,3.60
2019-01-29T13:41:02.436Z,3.36
2019-01-29T13:43:36.449Z,3.45
2019-01-29T13:46:10.622Z,3.19
2019-01-29T13:48:44.400Z,3.08
2019-01-29T13:51:17.047Z,3.05
2019-01-29T13:53:50.018Z,3.33
2019-01-29T13:56:23.395Z,3.16
2019-01-29T13:58:56.413Z,3.32
2019-01-29T14:01:29.456Z,3.15
2019-01-29T14:04:06.284Z,3.13
2019-01-29T14:06:37.317Z,3.16
2019-01-29T14:09:10.995Z,3.28
2019-01-29T14:12:04.794Z,3.36
2019-01-29T14:14:38.345Z,3.10
2019-01-29T14:17:14.141Z,3.23
2019-01-29T14:19:47.568Z,3.43
2019-01-29T14:22:21.125Z,3.58
2019-01-29T14:24:56.995Z,3.43
2019-01-29T14:27:30.849Z,3.32
2019-01-29T14:30:05.487Z,3.11
2019-01-29T14:32:40.842Z,3.06
2019-01-29T14:35:16.753Z,2.96
2019-01-29T14:38:46.312Z,3.00
2019-01-29T14:41:21.685Z,3.18
2019-01-29T14:43:56.974Z,3.14
2019-01-29T14:46:30.058Z,3.02
2019-01-29T14:49:03.184Z,3.02
2019-01-29T14:51:36.609Z,2.86
2019-01-29T14:54:09.408Z,2.80
2019-01-29T14:56:42.579Z,2.71
2019-01-29T14:59:17.089Z,2.65
2019-01-29T15:01:50.575Z,2.56
2019-01-29T15:04:23.875Z,2.62
2019-01-29T15:06:59.940Z,2.48
2019-01-29T15:09:32.508Z,2.54
2019-01-29T15:12:04.863Z,2.48
2019-01-29T15:14:37.224Z,2.44
2019-01-29T15:17:35.770Z,2.49
2019-01-29T15:20:10.197Z,2.35
2019-01-29T15:22:44.312Z,2.29
2019-01-29T15:25:18.249Z,2.21
2019-01-29T15:27:50.659Z,2.23
2019-01-29T15:30:25.297Z,2.22
2019-01-29T15:32:59.012Z,2.24
2019-01-29T15:35:32.219Z,2.23
2019-01-29T15:38:06.113Z,2.14
2019-01-29T15:40:39.975Z,2.18
2019-01-29T15:43:12.910Z,2.10
2019-01-29T15:45:46.498Z,2.14
2019-01-29T15:48:19.578Z,2.07
2019-01-29T15:50:53.054Z,2.12
2019-01-29T15:53:25.562Z,2.04
2019-01-29T15:55:59.061Z,2.00
2019-01-29T15:58:31.319Z,1.99
2019-01-29T16:01:04.738Z,1.89
